createdAt,value
2022-12-04T00:02:06.900Z,33.87
2022-12-04T00:04:35.698Z,33.40
2022-12-04T00:07:04.089Z,33.23
2022-12-04T00:09:33.859Z,31.77
2022-12-04T00:12:02.298Z,33.87
2022-12-04T00:14:30.633Z,31.77
2022-12-04T00:16:59.074Z,32.80
2022-12-04T00:19:27.761Z,31.63
2022-12-04T00:21:56.193Z,30.20
2022-12-04T00:24:24.681Z,33.03
2022-12-04T00:26:54.767Z,32.60
2022-12-04T00:29:23.789Z,32.20
2022-12-04T00:31:52.277Z,34.27
2022-12-04T00:34:22.280Z,32.87
2022-12-04T00:36:53.829Z,35.60
2022-12-04T00:39:22.150Z,31.83
2022-12-04T00:41:50.521Z,33.20
2022-12-04T00:44:20.200Z,32.50
2022-12-04T00:46:48.552Z,35.70
2022-12-04T00:49:17.148Z,32.17
2022-12-04T00:51:45.569Z,30.80
2022-12-04T00:54:14.037Z,33.53
2022-12-04T00:56:43.481Z,31.90
2022-12-04T00:59:11.966Z,32.10
2022-12-04T01:01:41.822Z,31.03
2022-12-04T01:04:10.560Z,32.87
2022-12-04T01:06:38.962Z,33.50
2022-12-04T01:09:07.838Z,31.33
2022-12-04T01:11:36.531Z,32.83
2022-12-04T01:14:05.342Z,32.03
2022-12-04T01:16:36.338Z,31.10
2022-12-04T01:19:07.558Z,34.00
2022-12-04T01:21:37.547Z,30.93
2022-12-04T01:24:07.144Z,30.27
2022-12-04T01:26:36.005Z,32.20
2022-12-04T01:29:05.234Z,31.07
2022-12-04T01:31:33.858Z,31.03
2022-12-04T01:34:02.367Z,31.40
2022-12-04T01:36:32.340Z,31.17
2022-12-04T01:39:00.816Z,30.20
2022-12-04T01:41:32.161Z,32.47
2022-12-04T01:44:12.263Z,32.40
2022-12-04T01:46:41.520Z,32.70
2022-12-04T01:49:14.040Z,30.87
2022-12-04T01:51:47.787Z,32.37
2022-12-04T01:54:22.199Z,31.37
2022-12-04T01:56:53.879Z,31.60
2022-12-04T01:59:29.705Z,33.70
2022-12-04T02:02:04.034Z,32.67
2022-12-04T02:04:34.653Z,31.30
2022-12-04T02:07:04.646Z,32.83
2022-12-04T02:09:34.079Z,32.53
2022-12-04T02:12:10.061Z,33.10
2022-12-04T02:14:45.810Z,32.50
2022-12-04T02:17:22.045Z,32.93
2022-12-04T02:20:11.466Z,32.97
2022-12-04T02:22:58.648Z,32.60
2022-12-04T02:25:35.549Z,31.63
2022-12-04T02:28:10.672Z,32.03
2022-12-04T02:30:42.473Z,32.83
2022-12-04T02:33:19.299Z,31.23
2022-12-04T02:35:53.526Z,31.97
2022-12-04T02:38:26.388Z,33.50
2022-12-04T02:41:00.255Z,32.97
2022-12-04T02:43:34.220Z,31.93
2022-12-04T02:46:09.121Z,33.30
2022-12-04T02:48:42.816Z,35.03
2022-12-04T02:51:14.906Z,34.40
2022-12-04T02:53:47.993Z,32.17
2022-12-04T02:56:21.030Z,33.30
2022-12-04T02:58:54.707Z,34.40
2022-12-04T03:01:27.992Z,32.83
2022-12-04T03:04:01.869Z,32.83
2022-12-04T03:06:35.265Z,33.27
2022-12-04T03:09:10.421Z,33.90
2022-12-04T03:11:41.699Z,33.70
2022-12-04T03:14:15.984Z,33.17
2022-12-04T03:16:45.240Z,36.60
2022-12-04T03:19:18.520Z,34.13
2022-12-04T03:21:51.244Z,34.70
2022-12-04T03:24:25.508Z,32.97
2022-12-04T03:27:00.139Z,34.97
2022-12-04T03:29:35.479Z,34.43
2022-12-04T03:32:09.367Z,34.53
2022-12-04T03:34:44.672Z,33.40
2022-12-04T03:37:17.212Z,35.87
2022-12-04T03:39:56.807Z,34.23
2022-12-04T03:42:28.661Z,35.00
2022-12-04T03:45:03.649Z,33.87
2022-12-04T03:47:37.768Z,33.60
2022-12-04T03:50:14.959Z,34.93
2022-12-04T03:52:50.837Z,35.83
2022-12-04T03:55:27.062Z,34.20
2022-12-04T03:58:00.668Z,34.93
2022-12-04T04:00:32.093Z,34.23
2022-12-04T04:03:15.649Z,34.83
2022-12-04T04:05:48.242Z,35.20
2022-12-04T04:08:33.964Z,34.43
2022-12-04T04:11:11.269Z,36.63
2022-12-04T04:14:04.093Z,34.93
2022-12-04T04:16:55.405Z,34.70
2022-12-04T04:19:50.948Z,35.73
2022-12-04T04:22:38.859Z,34.53
2022-12-04T04:25:11.493Z,36.63
2022-12-04T04:27:40.823Z,35.03
2022-12-04T04:30:10.750Z,35.40
2022-12-04T04:32:46.901Z,36.57
2022-12-04T04:35:22.309Z,34.63
2022-12-04T04:37:57.887Z,35.00
2022-12-04T04:40:33.441Z,36.77
2022-12-04T04:43:08.996Z,35.93
2022-12-04T04:45:42.605Z,35.53
2022-12-04T04:48:16.191Z,33.77
2022-12-04T04:50:46.293Z,36.63
2022-12-04T04:53:29.918Z,34.77
2022-12-04T04:55:58.884Z,33.77
2022-12-04T04:58:27.357Z,35.13
2022-12-04T05:01:00.593Z,35.67
2022-12-04T05:03:31.488Z,34.27
2022-12-04T05:06:00.367Z,34.30
2022-12-04T05:08:28.963Z,32.23
2022-12-04T05:10:57.537Z,34.77
2022-12-04T05:13:26.778Z,35.63
2022-12-04T05:15:59.434Z,34.73
2022-12-04T05:18:28.516Z,36.33
2022-12-04T05:20:57.719Z,33.20
2022-12-04T05:23:26.617Z,34.30
2022-12-04T05:26:00.784Z,34.37
2022-12-04T05:28:29.750Z,32.30
2022-12-04T05:30:59.412Z,34.77
2022-12-04T05:33:28.088Z,33.90
2022-12-04T05:36:02.836Z,32.53
2022-12-04T05:38:31.378Z,32.13
2022-12-04T05:40:59.836Z,33.10
2022-12-04T05:43:28.768Z,33.00
2022-12-04T05:46:01.378Z,34.77
2022-12-04T05:48:29.842Z,31.63
2022-12-04T05:50:58.319Z,32.27
2022-12-04T05:53:28.009Z,33.17
2022-12-04T05:55:57.999Z,32.00
2022-12-04T05:58:27.174Z,30.27
2022-12-04T06:00:55.815Z,32.70
2022-12-04T06:03:24.377Z,32.33
2022-12-04T06:05:52.867Z,29.77
2022-12-04T06:08:21.293Z,31.23
2022-12-04T06:10:51.115Z,30.87
2022-12-04T06:13:19.502Z,28.67
2022-12-04T06:15:47.960Z,29.80
2022-12-04T06:18:16.442Z,30.40
2022-12-04T06:20:47.817Z,28.53
2022-12-04T06:23:16.253Z,29.77
2022-12-04T06:25:44.839Z,29.37
2022-12-04T06:28:14.746Z,30.93
2022-12-04T06:30:43.277Z,30.07
2022-12-04T06:33:11.915Z,28.67
2022-12-04T06:35:40.368Z,30.40
2022-12-04T06:38:09.375Z,28.70
2022-12-04T06:40:41.155Z,28.70
2022-12-04T06:43:09.517Z,28.00
2022-12-04T06:45:39.580Z,28.40
2022-12-04T06:48:08.362Z,27.87
2022-12-04T06:50:37.084Z,28.83
2022-12-04T06:53:08.560Z,28.83
2022-12-04T06:55:37.845Z,29.43
2022-12-04T06:58:06.753Z,28.53
2022-12-04T07:00:35.300Z,29.07
2022-12-04T07:03:05.258Z,28.00
2022-12-04T07:05:33.616Z,26.27
2022-12-04T07:08:02.228Z,27.13
2022-12-04T07:10:30.760Z,27.67
2022-12-04T07:12:59.281Z,26.53
2022-12-04T07:15:27.900Z,26.23
2022-12-04T07:17:56.523Z,28.73
2022-12-04T07:20:26.371Z,26.83
2022-12-04T07:22:55.015Z,26.63
2022-12-04T07:25:23.768Z,25.87
2022-12-04T07:27:52.122Z,26.77
2022-12-04T07:30:20.950Z,26.67
2022-12-04T07:32:49.302Z,24.53
2022-12-04T07:35:17.856Z,22.90
2022-12-04T07:37:47.682Z,24.27
2022-12-04T07:40:16.212Z,25.47
2022-12-04T07:42:44.756Z,25.00
2022-12-04T07:45:13.323Z,24.20
2022-12-04T07:47:41.820Z,24.20
2022-12-04T07:50:10.508Z,23.23
2022-12-04T07:52:39.382Z,24.80
2022-12-04T07:55:10.255Z,24.93
2022-12-04T07:57:38.630Z,24.90
2022-12-04T08:00:08.516Z,25.90
2022-12-04T08:02:40.287Z,24.37
2022-12-04T08:05:10.264Z,26.27
2022-12-04T08:07:38.879Z,25.73
2022-12-04T08:10:10.384Z,26.63
2022-12-04T08:12:38.763Z,27.17
2022-12-04T08:15:08.009Z,26.03
2022-12-04T08:17:36.589Z,28.43
2022-12-04T08:20:05.702Z,28.03
2022-12-04T08:22:34.023Z,27.17
2022-12-04T08:25:02.527Z,27.83
2022-12-04T08:27:32.422Z,29.53
2022-12-04T08:30:00.903Z,28.37
2022-12-04T08:32:29.181Z,27.07
2022-12-04T08:34:57.655Z,27.60
2022-12-04T08:37:27.631Z,27.40
2022-12-04T08:39:56.374Z,26.13
2022-12-04T08:42:25.501Z,26.67
2022-12-04T08:44:55.251Z,26.10
2022-12-04T08:47:23.831Z,25.50
2022-12-04T08:49:52.237Z,25.63
2022-12-04T08:52:20.874Z,24.07
2022-12-04T08:54:51.425Z,25.77
2022-12-04T08:57:19.913Z,24.40
2022-12-04T08:59:50.524Z,26.07
2022-12-04T09:02:20.367Z,23.70
2022-12-04T09:04:48.800Z,21.90
2022-12-04T09:07:17.397Z,22.00
2022-12-04T09:09:48.422Z,20.27
2022-12-04T09:12:17.283Z,20.27
2022-12-04T09:14:45.836Z,19.43
2022-12-04T09:17:14.592Z,19.07
2022-12-04T09:19:44.629Z,18.73
2022-12-04T09:22:13.102Z,19.47
2022-12-04T09:24:41.910Z,21.63
2022-12-04T09:27:14.766Z,23.27
2022-12-04T09:29:43.972Z,20.87
2022-12-04T09:32:13.107Z,19.47
2022-12-04T09:34:41.668Z,18.33
2022-12-04T09:37:11.592Z,17.67
2022-12-04T09:39:40.025Z,16.23
2022-12-04T09:42:21.655Z,17.33
2022-12-04T09:44:59.156Z,18.37
2022-12-04T09:47:30.909Z,18.00
2022-12-04T09:50:04.787Z,17.63
2022-12-04T09:52:49.039Z,17.37
2022-12-04T09:55:23.959Z,19.17
2022-12-04T09:58:01.298Z,18.90
2022-12-04T10:00:33.927Z,19.20
2022-12-04T10:03:05.855Z,17.23
2022-12-04T10:05:48.469Z,18.80
2022-12-04T10:08:24.090Z,17.43
2022-12-04T10:11:06.079Z,17.23
2022-12-04T10:13:55.678Z,17.97
2022-12-04T10:16:29.090Z,17.00
2022-12-04T10:19:10.428Z,18.03
2022-12-04T10:21:51.728Z,17.77
2022-12-04T10:24:35.896Z,17.60
2022-12-04T10:27:13.276Z,17.43
2022-12-04T10:29:45.104Z,17.43
2022-12-04T10:32:21.747Z,19.17
2022-12-04T10:34:53.641Z,18.43
2022-12-04T10:37:24.064Z,18.00
2022-12-04T10:39:59.525Z,18.60
2022-12-04T10:42:35.659Z,16.80
2022-12-04T10:45:05.664Z,18.47
2022-12-04T10:47:35.181Z,17.23
2022-12-04T10:50:07.041Z,16.90
2022-12-04T10:52:35.498Z,16.80
2022-12-04T10:55:06.172Z,17.57
2022-12-04T10:57:39.802Z,16.80
2022-12-04T11:00:28.586Z,18.43
2022-12-04T11:03:00.308Z,17.17
2022-12-04T11:05:32.745Z,18.60
2022-12-04T11:08:04.468Z,15.73
2022-12-04T11:10:37.138Z,17.07
2022-12-04T11:13:08.181Z,17.20
2022-12-04T11:15:37.751Z,18.53
2022-12-04T11:18:10.578Z,15.90
2022-12-04T11:20:41.764Z,18.53
2022-12-04T11:23:17.456Z,18.00
2022-12-04T11:25:49.752Z,17.90
2022-12-04T11:28:41.036Z,17.57
2022-12-04T11:31:12.539Z,19.17
2022-12-04T11:33:46.886Z,20.50
2022-12-04T11:36:25.153Z,18.40
2022-12-04T11:38:56.282Z,20.23
2022-12-04T11:41:29.061Z,20.17
2022-12-04T11:44:00.300Z,19.13
2022-12-04T11:46:31.787Z,19.80
2022-12-04T11:49:03.121Z,19.00
2022-12-04T11:51:50.310Z,20.90
2022-12-04T11:54:31.331Z,18.33
2022-12-04T11:57:11.605Z,19.43
2022-12-04T11:59:54.331Z,19.03
2022-12-04T12:02:39.906Z,19.33
2022-12-04T12:05:39.069Z,20.00
2022-12-04T12:08:19.909Z,21.80
2022-12-04T12:10:59.546Z,21.60
2022-12-04T12:13:41.490Z,24.53
2022-12-04T12:16:18.997Z,22.70
2022-12-04T12:19:04.768Z,23.63
2022-12-04T12:21:40.809Z,24.27
2022-12-04T12:24:21.765Z,27.33
2022-12-04T12:26:57.266Z,26.30
2022-12-04T12:29:44.399Z,24.67
2022-12-04T12:32:27.261Z,23.50
2022-12-04T12:34:56.562Z,24.10
2022-12-04T12:37:30.051Z,24.07
2022-12-04T12:40:04.263Z,23.40
2022-12-04T12:42:37.124Z,23.87
2022-12-04T12:45:17.648Z,24.17
2022-12-04T12:47:51.677Z,23.77
2022-12-04T12:50:24.916Z,24.40
2022-12-04T12:52:57.672Z,24.57
2022-12-04T12:55:34.677Z,23.93
2022-12-04T12:58:13.709Z,25.83
2022-12-04T13:00:49.100Z,23.83
2022-12-04T13:03:27.454Z,24.17
2022-12-04T13:06:04.971Z,24.43
2022-12-04T13:08:39.343Z,23.30
2022-12-04T13:11:13.288Z,23.90
2022-12-04T13:13:47.044Z,22.23
2022-12-04T13:16:21.098Z,22.07
2022-12-04T13:18:53.739Z,21.63
2022-12-04T13:21:32.278Z,22.43
2022-12-04T13:24:26.211Z,22.30
2022-12-04T13:27:02.333Z,21.73
2022-12-04T13:29:42.589Z,21.23
2022-12-04T13:32:38.587Z,20.80
2022-12-04T13:35:15.775Z,20.77
2022-12-04T13:37:58.606Z,21.90
2022-12-04T13:40:35.269Z,22.00
2022-12-04T13:43:20.670Z,23.40
2022-12-04T13:45:52.120Z,20.77
2022-12-04T13:48:31.489Z,24.20
2022-12-04T13:51:05.743Z,22.17
2022-12-04T13:53:37.422Z,23.93
2022-12-04T13:56:11.235Z,21.07
2022-12-04T13:58:42.162Z,23.27
2022-12-04T14:01:31.078Z,22.33
2022-12-04T14:04:01.536Z,24.53
2022-12-04T14:06:35.952Z,23.70
2022-12-04T14:09:08.061Z,20.57
2022-12-04T14:11:46.427Z,20.53
2022-12-04T14:14:26.915Z,21.90
2022-12-04T14:16:57.334Z,21.40
2022-12-04T14:19:34.288Z,20.40
2022-12-04T14:22:03.490Z,20.70
2022-12-04T14:24:37.254Z,20.50
2022-12-04T14:27:34.103Z,20.63
2022-12-04T14:30:03.473Z,21.00
2022-12-04T14:32:35.024Z,21.13
2022-12-04T14:35:05.399Z,20.37
2022-12-04T14:37:38.012Z,21.23
2022-12-04T14:40:08.038Z,21.27
2022-12-04T14:42:39.250Z,21.40
2022-12-04T14:45:21.711Z,23.80
2022-12-04T14:48:07.658Z,21.07
2022-12-04T14:50:54.443Z,22.10
2022-12-04T14:53:35.175Z,22.13
2022-12-04T14:56:18.158Z,20.37
2022-12-04T14:58:47.045Z,22.37
2022-12-04T15:01:28.947Z,21.97
2022-12-04T15:04:00.718Z,25.37
2022-12-04T15:06:33.971Z,25.10
2022-12-04T15:09:32.591Z,27.30
2022-12-04T15:12:33.316Z,38.17
2022-12-04T15:15:07.877Z,29.73
2022-12-04T15:17:36.349Z,25.33
2022-12-04T15:20:17.685Z,29.40
2022-12-04T15:22:48.530Z,27.13
2022-12-04T15:25:22.331Z,27.27
2022-12-04T15:27:54.649Z,28.30
2022-12-04T15:30:25.230Z,26.50
2022-12-04T15:32:54.959Z,30.70
2022-12-04T15:35:28.569Z,28.20
2022-12-04T15:37:59.661Z,29.90
2022-12-04T15:40:30.984Z,28.30
2022-12-04T15:43:17.931Z,27.07
2022-12-04T15:45:46.342Z,26.67
2022-12-04T15:48:24.953Z,28.53
2022-12-04T15:50:59.640Z,27.27
2022-12-04T15:53:32.332Z,27.30
2022-12-04T15:56:04.430Z,27.60
2022-12-04T15:58:34.865Z,28.77
2022-12-04T16:01:07.355Z,26.23
2022-12-04T16:03:41.090Z,25.97
2022-12-04T16:06:17.902Z,25.70
2022-12-04T16:08:51.404Z,25.17
2022-12-04T16:11:32.038Z,26.23
2022-12-04T16:14:18.995Z,24.43
2022-12-04T16:16:50.028Z,25.87
2022-12-04T16:19:28.833Z,24.43
2022-12-04T16:21:57.311Z,24.17
2022-12-04T16:24:27.673Z,23.97
2022-12-04T16:26:57.259Z,24.10
2022-12-04T16:29:25.772Z,23.73
2022-12-04T16:32:02.511Z,23.17
2022-12-04T16:34:31.640Z,22.60
2022-12-04T16:37:00.659Z,23.30
2022-12-04T16:39:36.885Z,21.97
2022-12-04T16:42:10.530Z,22.47
2022-12-04T16:44:41.412Z,24.13
2022-12-04T16:47:11.041Z,21.40
2022-12-04T16:49:39.928Z,21.97
2022-12-04T16:52:10.162Z,22.20
2022-12-04T16:54:40.946Z,21.13
2022-12-04T16:57:10.353Z,21.40
2022-12-04T16:59:39.330Z,20.53
2022-12-04T17:02:16.765Z,21.53
2022-12-04T17:04:45.398Z,21.17
2022-12-04T17:07:13.762Z,22.80
2022-12-04T17:09:43.591Z,22.23
2022-12-04T17:12:12.115Z,22.60
2022-12-04T17:14:42.771Z,25.00
2022-12-04T17:17:11.320Z,23.53
2022-12-04T17:19:39.883Z,25.37
2022-12-04T17:22:08.456Z,25.70
2022-12-04T17:24:43.551Z,25.13
2022-12-04T17:27:17.274Z,38.70
2022-12-04T17:29:46.836Z,30.73
2022-12-04T17:32:15.489Z,24.27
2022-12-04T17:34:44.138Z,23.70
2022-12-04T17:37:12.811Z,23.93
2022-12-04T17:39:41.246Z,23.53
2022-12-04T17:42:09.852Z,23.53
2022-12-04T17:44:39.948Z,24.27
2022-12-04T17:47:08.452Z,24.37
2022-12-04T17:49:38.592Z,23.67
2022-12-04T17:52:07.034Z,24.13
2022-12-04T17:54:36.309Z,23.67
2022-12-04T17:57:04.782Z,24.43
2022-12-04T17:59:33.076Z,24.87
2022-12-04T18:02:02.886Z,24.53
2022-12-04T18:04:31.356Z,29.37
2022-12-04T18:06:59.878Z,26.60
2022-12-04T18:09:28.778Z,23.27
2022-12-04T18:11:58.665Z,47.93
2022-12-04T18:14:27.136Z,28.07
2022-12-04T18:16:57.221Z,22.83
2022-12-04T18:19:29.661Z,22.83
2022-12-04T18:21:59.106Z,24.50
2022-12-04T18:24:28.100Z,24.87
2022-12-04T18:26:56.617Z,23.63
2022-12-04T18:29:26.726Z,24.70
2022-12-04T18:31:55.635Z,24.33
2022-12-04T18:34:24.611Z,24.37
2022-12-04T18:36:54.558Z,25.23
2022-12-04T18:39:25.068Z,24.80
2022-12-04T18:41:56.242Z,25.53
2022-12-04T18:44:24.781Z,25.33
2022-12-04T18:46:53.611Z,24.63
2022-12-04T18:49:22.393Z,25.77
2022-12-04T18:51:50.860Z,23.57
2022-12-04T18:54:22.382Z,24.63
2022-12-04T18:56:52.014Z,25.40
2022-12-04T18:59:22.543Z,25.47
2022-12-04T19:01:51.491Z,23.07
2022-12-04T19:04:22.297Z,24.57
2022-12-04T19:06:53.475Z,25.47
2022-12-04T19:10:09.849Z,25.27
2022-12-04T19:12:16.454Z,23.73
2022-12-04T19:14:47.160Z,24.50
2022-12-04T19:17:16.198Z,25.77
2022-12-04T19:19:44.766Z,25.57
2022-12-04T19:22:13.331Z,24.53
2022-12-04T19:24:44.002Z,25.93
2022-12-04T19:27:12.550Z,26.30
2022-12-04T19:29:42.526Z,26.77
2022-12-04T19:32:12.450Z,25.50
2022-12-04T19:34:41.624Z,26.53
2022-12-04T19:37:10.274Z,26.40
2022-12-04T19:39:39.030Z,27.60
2022-12-04T19:42:09.129Z,27.30
2022-12-04T19:44:53.006Z,27.47
2022-12-04T19:47:21.956Z,25.83
2022-12-04T19:49:52.520Z,43.37
2022-12-04T19:52:21.198Z,30.07
2022-12-04T19:54:49.729Z,28.60
2022-12-04T19:57:19.765Z,61.20
2022-12-04T19:59:48.463Z,57.60
2022-12-04T20:02:17.225Z,29.77
2022-12-04T20:04:46.004Z,29.27
2022-12-04T20:07:14.742Z,28.33
2022-12-04T20:09:48.740Z,28.53
2022-12-04T20:12:21.938Z,28.07
2022-12-04T20:14:50.432Z,28.40
2022-12-04T20:17:18.929Z,26.47
2022-12-04T20:19:47.564Z,26.60
2022-12-04T20:22:16.176Z,27.67
2022-12-04T20:24:45.047Z,29.70
2022-12-04T20:27:13.597Z,27.93
2022-12-04T20:29:43.910Z,27.87
2022-12-04T20:32:12.371Z,26.73
2022-12-04T20:34:43.677Z,27.80
2022-12-04T20:37:12.815Z,27.40
2022-12-04T20:39:41.582Z,27.50
2022-12-04T20:42:10.305Z,41.97
2022-12-04T20:44:38.869Z,48.03
2022-12-04T20:47:08.963Z,66.80
2022-12-04T20:49:37.608Z,51.03
2022-12-04T20:52:06.256Z,31.90
2022-12-04T20:54:41.098Z,31.80
2022-12-04T20:57:11.820Z,26.60
2022-12-04T20:59:40.361Z,27.47
2022-12-04T21:02:12.257Z,29.17
2022-12-04T21:04:40.922Z,26.87
2022-12-04T21:07:12.785Z,28.13
2022-12-04T21:09:41.663Z,29.70
2022-12-04T21:12:24.342Z,27.93
2022-12-04T21:15:09.712Z,28.27
2022-12-04T21:17:40.368Z,27.67
2022-12-04T21:20:10.676Z,26.13
2022-12-04T21:22:39.482Z,28.10
2022-12-04T21:25:10.387Z,26.47
2022-12-04T21:27:39.305Z,27.90
2022-12-04T21:30:09.102Z,27.43
2022-12-04T21:32:37.837Z,26.90
2022-12-04T21:35:08.569Z,26.83
2022-12-04T21:37:37.252Z,26.27
2022-12-04T21:40:07.098Z,28.27
2022-12-04T21:42:35.974Z,27.43
2022-12-04T21:45:07.755Z,26.90
2022-12-04T21:47:38.163Z,27.30
2022-12-04T21:50:09.629Z,27.53
2022-12-04T21:52:38.197Z,28.67
2022-12-04T21:55:07.412Z,28.70
2022-12-04T21:57:36.218Z,25.97
2022-12-04T22:00:05.900Z,27.13
2022-12-04T22:02:36.355Z,26.77
2022-12-04T22:05:05.306Z,27.03
2022-12-04T22:07:35.242Z,27.10
2022-12-04T22:10:10.146Z,27.33
2022-12-04T22:12:49.560Z,27.30
2022-12-04T22:15:18.754Z,26.37
2022-12-04T22:17:47.587Z,25.97
2022-12-04T22:20:16.939Z,27.27
2022-12-04T22:22:47.017Z,27.00
2022-12-04T22:25:15.643Z,26.50
2022-12-04T22:27:44.250Z,26.33
2022-12-04T22:30:14.155Z,25.23
2022-12-04T22:32:42.684Z,26.20
2022-12-04T22:35:11.552Z,25.03
2022-12-04T22:37:44.287Z,27.13
2022-12-04T22:40:16.797Z,25.37
2022-12-04T22:42:46.269Z,27.70
2022-12-04T22:45:16.002Z,25.70
2022-12-04T22:47:44.432Z,25.53
2022-12-04T22:50:13.588Z,25.97
2022-12-04T22:52:42.057Z,27.97
2022-12-04T22:55:10.761Z,26.13
2022-12-04T22:57:40.550Z,26.97
2022-12-04T23:00:10.550Z,26.37
2022-12-04T23:02:39.025Z,24.87
2022-12-04T23:05:07.901Z,24.93
2022-12-04T23:07:37.493Z,25.90
2022-12-04T23:10:07.594Z,27.60
2022-12-04T23:12:36.028Z,25.53
2022-12-04T23:15:06.701Z,26.30
2022-12-04T23:17:35.565Z,26.63
2022-12-04T23:20:04.054Z,24.23
2022-12-04T23:22:32.489Z,26.17
2022-12-04T23:25:01.085Z,25.77
2022-12-04T23:27:31.653Z,27.63
2022-12-04T23:30:00.239Z,26.50
2022-12-04T23:32:30.059Z,25.90
2022-12-04T23:34:58.561Z,27.33
2022-12-04T23:37:27.171Z,26.43
2022-12-04T23:39:55.738Z,26.80
2022-12-04T23:42:24.639Z,28.87
2022-12-04T23:44:53.076Z,27.30
2022-12-04T23:47:21.550Z,26.97
2022-12-04T23:49:51.356Z,28.60
2022-12-04T23:52:19.818Z,28.87
2022-12-04T23:54:48.208Z,29.37
2022-12-04T23:57:16.599Z,27.77
2022-12-04T23:59:45.030Z,27.63
